Terminal Aerodrome Forecast
Issued by NWS

Home | Current Version | Previous Version | Text Only | Print | Product List | Glossary On
Versions: 1 2 3 4 5 6 7 8 9 10 11 12 13 14 15
000
FTUS45 KGGW 251100
TAFSDY
TAF
KSDY 251136Z 2512/2612 30008KT P6SM OVC035
     FM251400 33012KT P6SM OVC015
     FM252300 33012KT P6SM BKN050
     FM260300 VRB06KT P6SM BKN150
      AMD LTD TO CLD VIS AND WIND=

USA.gov is the U.S. government's official web portal to all federal, state and local government web resources and services.